Time;durP1;ratioP1;P1;durP2;ratioP2;P2;SDS_P1;SDS_P2;PMS_P1;PMS_P2;Temp;Humidity;BMP_temperature;BMP_pressure;BME280_temperature;BME280_humidity;BME280_pressure;Samples;Min_cycle;Max_cycle;Signal;HPM_P1;HPM_P2
2020/12/15 00:01:12;;;;;;;19.30;11.45;;;2.10;99.90;;;;;;5009796;28;20101;-79
2020/12/15 00:03:37;;;;;;;22.80;12.75;;;2.00;99.90;;;;;;5006610;28;20029;-79
2020/12/15 00:06:03;;;;;;;21.83;12.10;;;2.00;99.90;;;;;;5010476;28;20040;-79
2020/12/15 00:08:28;;;;;;;23.60;12.82;;;2.00;99.90;;;;;;5013530;28;20033;-79
2020/12/15 00:10:54;;;;;;;23.52;11.48;;;2.10;99.90;;;;;;5011533;28;20038;-78
2020/12/15 00:13:20;;;;;;;23.33;12.52;;;;;;;;;;5013739;28;20042;-80
2020/12/15 00:15:46;;;;;;;28.75;15.30;;;1.90;99.90;;;;;;5017841;28;20030;-79
2020/12/15 00:18:11;;;;;;;30.50;15.23;;;1.80;99.90;;;;;;5012475;28;20038;-80
2020/12/15 00:20:41;;;;;;;30.58;14.00;;;1.80;99.90;;;;;;5008719;28;20030;-79
2020/12/15 00:23:08;;;;;;;28.20;14.10;;;1.90;99.90;;;;;;5010917;28;20551;-79
2020/12/15 00:25:33;;;;;;;25.08;13.05;;;1.80;99.90;;;;;;5007973;28;20442;-80
2020/12/15 00:27:59;;;;;;;29.58;13.93;;;1.80;99.90;;;;;;5012532;28;20037;-81
2020/12/15 00:30:25;;;;;;;30.45;15.13;;;1.80;99.90;;;;;;5004500;28;20103;-79
2020/12/15 00:32:51;;;;;;;30.98;14.90;;;1.80;99.90;;;;;;5008695;28;20057;-79
2020/12/15 00:35:17;;;;;;;30.48;15.27;;;1.80;99.90;;;;;;5017622;28;20119;-79
2020/12/15 00:37:43;;;;;;;31.92;15.30;;;1.90;99.90;;;;;;5006909;28;20126;-81
2020/12/15 00:40:08;;;;;;;34.75;16.30;;;1.80;99.90;;;;;;5011260;28;20026;-79
2020/12/15 00:42:34;;;;;;;33.47;16.05;;;1.80;99.90;;;;;;5006942;28;20053;-79
2020/12/15 00:44:59;;;;;;;33.85;17.13;;;1.90;99.90;;;;;;5005301;28;20112;-79
2020/12/15 00:47:25;;;;;;;36.45;16.35;;;2.00;99.90;;;;;;5010321;28;20134;-79
2020/12/15 00:49:51;;;;;;;35.13;15.65;;;1.90;99.90;;;;;;5007258;28;20042;-79
2020/12/15 00:52:16;;;;;;;40.30;17.65;;;2.00;99.90;;;;;;5009046;28;20391;-78
2020/12/15 00:54:42;;;;;;;41.50;16.85;;;2.00;99.90;;;;;;5008173;28;20139;-78
2020/12/15 00:57:08;;;;;;;40.50;17.30;;;2.00;99.90;;;;;;5010038;28;20034;-78
2020/12/15 00:59:33;;;;;;;36.95;16.83;;;2.00;99.90;;;;;;5010174;28;20026;-78
2020/12/15 01:02:00;;;;;;;35.03;15.88;;;2.00;99.90;;;;;;5008242;28;20108;-80
2020/12/15 01:04:25;;;;;;;34.08;15.85;;;2.00;99.90;;;;;;5004353;28;20034;-80
2020/12/15 01:06:51;;;;;;;32.13;16.00;;;2.00;99.90;;;;;;5009717;28;20029;-81
2020/12/15 01:09:17;;;;;;;34.28;15.98;;;1.90;99.90;;;;;;5011033;28;20113;-80
2020/12/15 01:11:43;;;;;;;34.25;15.88;;;1.90;99.90;;;;;;5009793;28;20535;-79
2020/12/15 01:14:08;;;;;;;50.60;16.60;;;2.00;99.90;;;;;;5010315;28;20029;-81
2020/12/15 01:16:34;;;;;;;42.25;17.63;;;2.00;99.90;;;;;;5008912;28;20128;-80
2020/12/15 01:19:00;;;;;;;39.55;16.63;;;1.90;99.90;;;;;;5009752;28;20018;-79
2020/12/15 01:21:30;;;;;;;51.60;16.70;;;1.90;99.90;;;;;;5010151;28;20034;-77
2020/12/15 01:23:57;;;;;;;40.10;15.60;;;1.90;99.90;;;;;;5007213;28;20022;-78
2020/12/15 01:26:23;;;;;;;48.90;17.83;;;1.80;99.90;;;;;;5010811;28;20037;-79
2020/12/15 01:28:49;;;;;;;56.88;16.67;;;1.70;99.90;;;;;;5010133;28;20038;-78
2020/12/15 01:31:22;;;;;;;51.25;16.83;;;1.70;99.90;;;;;;5006326;28;20440;-79
2020/12/15 01:33:47;;;;;;;61.78;16.85;;;1.70;99.90;;;;;;4992998;28;20028;-79
2020/12/15 01:36:13;;;;;;;81.05;18.38;;;1.70;99.90;;;;;;4989588;28;20041;-79
2020/12/15 01:38:41;;;;;;;57.17;18.27;;;1.60;99.90;;;;;;5007561;28;20074;-79
2020/12/15 01:41:06;;;;;;;69.88;19.00;;;1.60;99.90;;;;;;5008966;28;20536;-79
2020/12/15 01:43:32;;;;;;;60.35;17.23;;;1.60;99.90;;;;;;5009041;28;20113;-78
2020/12/15 01:45:58;;;;;;;58.42;17.10;;;1.60;99.90;;;;;;5008412;28;20022;-79
2020/12/15 01:48:23;;;;;;;54.45;18.65;;;1.70;99.90;;;;;;5010277;28;20481;-79
2020/12/15 01:50:49;;;;;;;48.88;17.88;;;1.70;99.90;;;;;;5008619;28;20037;-79
2020/12/15 01:53:15;;;;;;;63.67;17.67;;;1.70;99.90;;;;;;5010201;28;20109;-80
2020/12/15 01:55:41;;;;;;;49.67;17.80;;;1.70;99.90;;;;;;4997984;28;20037;-78
2020/12/15 01:58:08;;;;;;;46.97;17.02;;;1.70;99.90;;;;;;5005944;28;20371;-79
2020/12/15 02:00:33;;;;;;;42.25;16.27;;;1.70;99.90;;;;;;4992248;28;20101;-78
2020/12/15 02:02:59;;;;;;;64.80;17.70;;;1.70;99.90;;;;;;5010073;28;20112;-79
2020/12/15 02:05:25;;;;;;;53.45;17.52;;;1.70;99.90;;;;;;5009810;28;20033;-79
2020/12/15 02:07:51;;;;;;;50.40;17.48;;;1.70;99.90;;;;;;5009906;28;20029;-80
2020/12/15 02:10:17;;;;;;;83.20;16.00;;;1.80;99.90;;;;;;5008526;28;20042;-79
2020/12/15 02:12:43;;;;;;;107.28;19.90;;;1.70;99.90;;;;;;5009681;28;20117;-78
2020/12/15 02:15:09;;;;;;;78.68;15.27;;;1.60;99.90;;;;;;4990861;28;20092;-78
2020/12/15 02:17:35;;;;;;;84.97;16.70;;;1.50;99.90;;;;;;5007212;28;20516;-80
2020/12/15 02:20:06;;;;;;;51.17;17.50;;;1.50;99.90;;;;;;5010055;28;20026;-78
2020/12/15 02:22:32;;;;;;;84.93;18.23;;;1.50;99.90;;;;;;5004653;28;20033;-79
2020/12/15 02:24:57;;;;;;;56.35;15.18;;;1.50;99.90;;;;;;5008175;28;20089;-79
2020/12/15 02:27:23;;;;;;;121.38;19.33;;;1.40;99.90;;;;;;5007751;28;20037;-79
2020/12/15 02:29:50;;;;;;;102.72;17.65;;;1.40;99.90;;;;;;5009676;28;20591;-79
2020/12/15 02:32:16;;;;;;;81.55;15.05;;;1.30;99.90;;;;;;5009025;28;20028;-79
2020/12/15 02:34:41;;;;;;;92.80;17.83;;;1.20;99.90;;;;;;5008214;28;20026;-79
2020/12/15 02:37:11;;;;;;;48.83;17.73;;;1.20;99.90;;;;;;5012028;28;20050;-79
2020/12/15 02:39:36;;;;;;;66.80;17.55;;;1.30;99.90;;;;;;4993591;28;20385;-78
2020/12/15 02:42:03;;;;;;;58.45;15.63;;;1.30;99.90;;;;;;4998323;28;20050;-79
2020/12/15 02:44:28;;;;;;;72.18;15.98;;;1.40;99.90;;;;;;4996254;28;20030;-78
2020/12/15 02:46:55;;;;;;;134.18;19.90;;;1.30;99.90;;;;;;4984999;28;20074;-78
2020/12/15 02:49:21;;;;;;;59.47;16.03;;;1.30;99.90;;;;;;4992753;28;20052;-78
2020/12/15 02:51:50;;;;;;;67.10;16.05;;;1.20;99.90;;;;;;4982410;28;20030;-78
2020/12/15 02:54:19;;;;;;;70.65;16.75;;;1.30;99.90;;;;;;4992361;28;20038;-79
2020/12/15 02:56:44;;;;;;;38.38;14.20;;;1.30;99.90;;;;;;4989655;28;20038;-80
2020/12/15 02:59:10;;;;;;;61.50;15.20;;;1.30;99.90;;;;;;4995102;28;20214;-78
2020/12/15 03:01:46;;;;;;;42.45;16.05;;;1.40;99.90;;;;;;4993739;28;20022;-78
2020/12/15 03:04:12;;;;;;;80.60;16.58;;;1.40;99.90;;;;;;4995418;28;20540;-79
2020/12/15 03:06:38;;;;;;;66.70;16.80;;;1.40;99.90;;;;;;4975000;28;20031;-79
2020/12/15 03:09:06;;;;;;;69.57;17.67;;;1.40;99.90;;;;;;4976317;28;20491;-79
2020/12/15 03:11:32;;;;;;;50.50;15.82;;;1.40;99.90;;;;;;4970882;28;20445;-79
2020/12/15 03:13:58;;;;;;;86.57;17.92;;;1.40;99.90;;;;;;4971925;28;20038;-79
2020/12/15 03:16:23;;;;;;;92.32;17.80;;;1.40;99.90;;;;;;4992286;28;20031;-78
2020/12/15 03:18:49;;;;;;;104.75;19.17;;;1.40;99.90;;;;;;4987933;28;20030;-79
2020/12/15 03:21:17;;;;;;;39.28;15.40;;;1.40;99.90;;;;;;4993934;28;20036;-80
2020/12/15 03:23:43;;;;;;;51.67;17.13;;;1.50;99.90;;;;;;4981493;28;20029;-80
2020/12/15 03:26:09;;;;;;;133.98;20.52;;;1.50;99.90;;;;;;4992303;28;20465;-78
2020/12/15 03:28:34;;;;;;;48.88;15.93;;;1.50;99.90;;;;;;4994089;28;20088;-78
2020/12/15 03:31:00;;;;;;;37.97;15.18;;;1.50;99.90;;;;;;4996977;28;20042;-78
2020/12/15 03:33:26;;;;;;;42.67;14.48;;;1.50;99.90;;;;;;4989182;28;20023;-78
2020/12/15 03:35:51;;;;;;;32.15;13.45;;;1.50;99.90;;;;;;4984393;28;20062;-78
2020/12/15 03:38:17;;;;;;;39.80;14.88;;;1.50;99.90;;;;;;5006116;28;20145;-78
2020/12/15 03:40:42;;;;;;;34.85;14.55;;;1.50;99.90;;;;;;5008311;28;20457;-79
2020/12/15 03:43:08;;;;;;;25.88;12.05;;;1.50;99.90;;;;;;5007480;28;20038;-79
2020/12/15 03:45:34;;;;;;;30.48;13.48;;;1.50;99.90;;;;;;5011571;28;20022;-79
2020/12/15 03:47:59;;;;;;;42.22;14.88;;;1.50;99.90;;;;;;5008441;28;20473;-80
2020/12/15 03:50:25;;;;;;;27.13;13.65;;;1.50;99.90;;;;;;4992376;28;20038;-79
2020/12/15 03:52:51;;;;;;;28.35;14.23;;;1.50;99.90;;;;;;5007032;28;20032;-80
2020/12/15 03:55:21;;;;;;;22.73;12.35;;;1.50;99.90;;;;;;5004618;28;20034;-79
2020/12/15 03:57:51;;;;;;;28.15;12.27;;;1.50;99.90;;;;;;5008908;28;20068;-79
2020/12/15 04:00:17;;;;;;;32.65;14.07;;;1.40;99.90;;;;;;5008255;28;20104;-80
2020/12/15 04:02:43;;;;;;;29.27;13.25;;;1.40;99.90;;;;;;5004080;28;20031;-79
2020/12/15 04:05:09;;;;;;;37.47;13.50;;;1.50;99.90;;;;;;5008554;28;20080;-79
2020/12/15 04:07:35;;;;;;;43.25;14.75;;;1.50;99.90;;;;;;4992025;28;20038;-80
2020/12/15 04:10:00;;;;;;;36.38;14.10;;;1.50;99.90;;;;;;5014480;28;20042;-78
2020/12/15 04:12:26;;;;;;;26.88;14.00;;;1.50;99.90;;;;;;5016221;28;20084;-79
2020/12/15 04:14:51;;;;;;;27.73;14.15;;;1.50;99.90;;;;;;5013706;28;20050;-80
2020/12/15 04:17:17;;;;;;;28.00;14.18;;;1.60;99.90;;;;;;5010656;28;21955;-79
2020/12/15 04:19:43;;;;;;;27.40;12.38;;;1.60;99.90;;;;;;5010796;28;20029;-79
2020/12/15 04:22:08;;;;;;;29.70;13.57;;;1.50;99.90;;;;;;5009908;28;20105;-79
2020/12/15 04:24:34;;;;;;;22.35;12.10;;;1.60;99.90;;;;;;5012186;28;20040;-80
2020/12/15 04:26:59;;;;;;;25.13;12.45;;;1.50;99.90;;;;;;5010302;28;20018;-79
2020/12/15 04:29:25;;;;;;;23.08;12.90;;;1.60;99.90;;;;;;5010144;28;20025;-80
2020/12/15 04:31:51;;;;;;;23.13;12.18;;;1.50;99.90;;;;;;5009929;28;20436;-78
2020/12/15 04:34:17;;;;;;;20.00;10.07;;;1.60;99.90;;;;;;5011074;28;20061;-79
2020/12/15 04:36:43;;;;;;;19.58;10.95;;;1.50;99.90;;;;;;5012092;28;20109;-79
2020/12/15 04:39:09;;;;;;;20.17;9.75;;;1.50;99.90;;;;;;5015231;28;20034;-79
2020/12/15 04:41:36;;;;;;;18.88;10.63;;;1.40;99.90;;;;;;5010383;28;20040;-80
2020/12/15 04:44:02;;;;;;;18.33;10.43;;;1.40;99.90;;;;;;5010382;28;20037;-79
2020/12/15 04:46:35;;;;;;;21.48;11.55;;;1.50;99.90;;;;;;5010889;28;20172;-80
2020/12/15 04:49:05;;;;;;;21.75;11.77;;;1.40;99.90;;;;;;5009270;28;20508;-79
2020/12/15 04:51:53;;;;;;;18.30;9.90;;;1.50;99.90;;;;;;5012918;28;20057;-80
2020/12/15 04:54:31;;;;;;;15.57;8.48;;;1.50;99.90;;;;;;5000241;28;20026;-79
2020/12/15 04:57:00;;;;;;;14.88;9.20;;;1.50;99.90;;;;;;5009705;28;20146;-78
2020/12/15 04:59:33;;;;;;;13.43;8.60;;;1.50;99.90;;;;;;5007652;28;20026;-79
2020/12/15 05:02:02;;;;;;;15.43;8.98;;;1.40;99.90;;;;;;5005813;28;20089;-77
2020/12/15 05:04:32;;;;;;;16.25;8.98;;;1.50;99.90;;;;;;5007710;28;20088;-79
2020/12/15 05:07:03;;;;;;;16.20;9.13;;;1.50;99.90;;;;;;5010376;28;20038;-78
2020/12/15 05:09:30;;;;;;;13.88;8.02;;;1.50;99.90;;;;;;5009620;28;20026;-79
2020/12/15 05:11:57;;;;;;;15.48;9.00;;;1.50;99.90;;;;;;5006587;28;20813;-79
2020/12/15 05:14:24;;;;;;;13.90;8.65;;;1.50;99.90;;;;;;4992981;28;20105;-80
2020/12/15 05:16:50;;;;;;;14.07;8.75;;;1.50;99.90;;;;;;5008242;28;20342;-79
2020/12/15 05:19:16;;;;;;;11.68;7.53;;;1.60;99.90;;;;;;5009342;28;20050;-79
2020/12/15 05:21:56;;;;;;;12.05;7.78;;;1.60;99.90;;;;;;5010056;28;20054;-80
2020/12/15 05:24:29;;;;;;;12.65;7.97;;;1.70;99.90;;;;;;5008184;28;20563;-79
2020/12/15 05:26:59;;;;;;;10.27;6.40;;;1.70;99.90;;;;;;5006481;28;20042;-79
2020/12/15 05:29:24;;;;;;;11.85;7.50;;;1.70;99.90;;;;;;5007900;28;20088;-80
2020/12/15 05:31:51;;;;;;;10.73;6.97;;;1.70;99.90;;;;;;5008076;28;20437;-79
2020/12/15 05:34:23;;;;;;;13.37;7.67;;;1.60;99.90;;;;;;5003436;28;20030;-79
2020/12/15 05:36:50;;;;;;;14.05;8.43;;;1.60;99.90;;;;;;5008631;28;20448;-78
2020/12/15 05:39:16;;;;;;;10.80;6.90;;;1.60;99.90;;;;;;5009442;28;20046;-79
2020/12/15 05:41:42;;;;;;;12.68;8.30;;;1.60;99.90;;;;;;5009834;28;20045;-79
2020/12/15 05:44:10;;;;;;;12.50;7.80;;;1.60;99.90;;;;;;5009072;28;20089;-79
2020/12/15 05:46:46;;;;;;;10.65;7.38;;;1.60;99.90;;;;;;5008720;28;20030;-79
2020/12/15 05:49:12;;;;;;;12.00;7.85;;;1.70;99.90;;;;;;5007781;28;20397;-78
2020/12/15 05:51:42;;;;;;;11.77;7.80;;;1.70;99.90;;;;;;5010313;28;20034;-79
2020/12/15 05:54:12;;;;;;;13.00;8.57;;;1.70;99.90;;;;;;5008327;28;20563;-77
2020/12/15 05:56:39;;;;;;;11.88;7.72;;;1.70;99.90;;;;;;5011818;28;20393;-78
2020/12/15 05:59:19;;;;;;;12.27;7.68;;;1.80;99.90;;;;;;5009669;28;20022;-78
2020/12/15 06:01:48;;;;;;;13.73;7.57;;;1.90;99.90;;;;;;5007369;28;20029;-79
2020/12/15 06:04:15;;;;;;;11.98;7.43;;;1.90;99.90;;;;;;5003283;28;20032;-75
2020/12/15 06:06:42;;;;;;;13.55;8.02;;;1.90;99.90;;;;;;5008344;28;20021;-79
2020/12/15 06:09:09;;;;;;;13.27;8.67;;;1.90;99.90;;;;;;5002399;28;20026;-78
2020/12/15 06:11:38;;;;;;;12.43;7.72;;;1.80;99.90;;;;;;5009701;28;20465;-80
2020/12/15 06:14:04;;;;;;;12.03;7.50;;;1.80;99.90;;;;;;5010335;28;20366;-76
2020/12/15 06:16:29;;;;;;;11.80;7.85;;;1.80;99.90;;;;;;5009226;28;20120;-78
2020/12/15 06:18:55;;;;;;;10.80;7.38;;;1.80;99.90;;;;;;5008921;28;20468;-76
2020/12/15 06:21:22;;;;;;;11.50;7.47;;;1.80;99.90;;;;;;5009112;28;20033;-77
2020/12/15 06:23:58;;;;;;;12.38;7.68;;;1.80;99.90;;;;;;5005144;28;20022;-76
2020/12/15 06:26:28;;;;;;;11.25;7.38;;;1.80;99.90;;;;;;5008195;28;20041;-76
2020/12/15 06:29:03;;;;;;;11.05;7.13;;;1.80;99.90;;;;;;5003339;28;20026;-78
2020/12/15 06:31:29;;;;;;;10.77;7.40;;;1.80;99.90;;;;;;5007911;28;20038;-76
2020/12/15 06:33:56;;;;;;;11.30;7.35;;;1.80;99.90;;;;;;5008633;28;20033;-77
2020/12/15 06:36:40;;;;;;;10.85;7.40;;;1.80;99.90;;;;;;5007891;28;20057;-76
2020/12/15 06:39:13;;;;;;;11.93;7.22;;;1.80;99.90;;;;;;5009183;28;20699;-76
2020/12/15 06:41:40;;;;;;;10.95;7.28;;;1.80;99.90;;;;;;5013952;28;20037;-76
2020/12/15 06:44:07;;;;;;;12.27;7.38;;;1.90;99.90;;;;;;5012207;28;20384;-80
2020/12/15 06:46:32;;;;;;;13.68;7.70;;;1.90;99.90;;;;;;5005086;28;20061;-76
2020/12/15 06:48:59;;;;;;;12.38;7.55;;;1.90;99.90;;;;;;5004882;28;20025;-78
2020/12/15 06:51:33;;;;;;;12.13;7.93;;;1.90;99.90;;;;;;5009352;28;20497;-76
2020/12/15 06:54:06;;;;;;;10.80;7.47;;;1.90;99.90;;;;;;5009547;28;20443;-78
2020/12/15 06:56:32;;;;;;;14.35;7.82;;;1.90;99.90;;;;;;5009921;28;20025;-77
2020/12/15 06:59:06;;;;;;;11.45;7.45;;;1.90;99.90;;;;;;5008530;28;20022;-80
2020/12/15 07:01:33;;;;;;;12.90;8.32;;;1.90;99.90;;;;;;5006941;28;20022;-78
2020/12/15 07:04:03;;;;;;;11.07;7.28;;;1.90;99.90;;;;;;5007152;28;20026;-77
2020/12/15 07:06:29;;;;;;;16.23;8.20;;;1.90;99.90;;;;;;5008590;28;20525;-76
2020/12/15 07:09:06;;;;;;;11.27;7.32;;;1.90;99.90;;;;;;5010954;28;20101;-78
2020/12/15 07:11:32;;;;;;;11.63;7.45;;;2.00;99.90;;;;;;4975297;28;20045;-77
2020/12/15 07:14:02;;;;;;;15.27;7.85;;;2.00;99.90;;;;;;5007009;28;20492;-81
2020/12/15 07:16:29;;;;;;;13.02;8.07;;;2.00;99.90;;;;;;5007643;28;20077;-80
2020/12/15 07:18:55;;;;;;;12.05;8.55;;;2.00;99.90;;;;;;5008031;28;20072;-78
2020/12/15 07:21:23;;;;;;;12.85;8.25;;;2.00;99.90;;;;;;5007885;28;20034;-77
2020/12/15 07:23:51;;;;;;;11.80;7.72;;;2.00;99.90;;;;;;5008220;28;20018;-78
2020/12/15 07:26:25;;;;;;;14.25;8.10;;;2.00;99.90;;;;;;5008687;28;20104;-78
2020/12/15 07:28:51;;;;;;;14.95;7.85;;;2.00;99.90;;;;;;5009629;28;20018;-77
2020/12/15 07:31:29;;;;;;;15.95;8.95;;;2.00;99.90;;;;;;5004379;28;20037;-78
2020/12/15 07:34:17;;;;;;;12.63;7.63;;;2.10;99.90;;;;;;5005047;28;20034;-77
2020/12/15 07:36:48;;;;;;;12.60;8.70;;;2.10;99.90;;;;;;5008745;28;20038;-77
2020/12/15 07:39:14;;;;;;;15.82;8.52;;;2.10;99.90;;;;;;5009994;28;20428;-77
2020/12/15 07:41:41;;;;;;;15.15;8.10;;;2.10;99.90;;;;;;5008941;28;20084;-78
2020/12/15 07:44:16;;;;;;;13.10;8.63;;;2.10;99.90;;;;;;5013155;28;20044;-78
2020/12/15 07:46:46;;;;;;;17.45;8.57;;;2.10;99.90;;;;;;5011907;28;20412;-76
2020/12/15 07:49:13;;;;;;;11.63;8.02;;;2.20;99.90;;;;;;5012681;28;20484;-77
2020/12/15 07:51:39;;;;;;;11.88;7.88;;;2.20;99.90;;;;;;4990025;28;20057;-78
2020/12/15 07:54:05;;;;;;;14.10;8.20;;;2.30;99.90;;;;;;5012881;28;20022;-77
2020/12/15 07:56:31;;;;;;;13.63;8.63;;;2.30;99.90;;;;;;5012726;28;20088;-77
2020/12/15 07:58:59;;;;;;;17.40;9.35;;;2.40;99.90;;;;;;5012000;28;20853;-77
2020/12/15 08:01:26;;;;;;;14.88;8.20;;;2.40;99.90;;;;;;5011743;28;20018;-77
2020/12/15 08:04:10;;;;;;;12.93;8.80;;;2.50;99.90;;;;;;5012183;28;20029;-78
2020/12/15 08:06:41;;;;;;;15.25;8.73;;;2.50;99.90;;;;;;5012246;28;20383;-78
2020/12/15 08:09:08;;;;;;;17.63;9.88;;;2.50;99.90;;;;;;5014521;28;20033;-78
2020/12/15 08:11:35;;;;;;;12.32;8.35;;;2.50;99.90;;;;;;4994292;28;20492;-76
2020/12/15 08:14:02;;;;;;;15.30;8.23;;;2.50;99.90;;;;;;5013836;28;20105;-77
2020/12/15 08:16:28;;;;;;;12.52;8.45;;;2.60;99.90;;;;;;5017969;28;20038;-76
2020/12/15 08:19:01;;;;;;;15.30;8.52;;;2.60;99.90;;;;;;5015190;28;20432;-77
2020/12/15 08:21:48;;;;;;;15.13;9.10;;;2.70;99.90;;;;;;5009664;28;20026;-76
2020/12/15 08:24:17;;;;;;;15.82;8.73;;;2.70;99.90;;;;;;5011620;28;20026;-76
2020/12/15 08:26:43;;;;;;;16.67;8.70;;;2.70;99.90;;;;;;5007390;28;20041;-76
2020/12/15 08:29:11;;;;;;;15.25;9.02;;;2.70;99.90;;;;;;5011726;28;20033;-77
2020/12/15 08:31:42;;;;;;;17.45;9.32;;;2.70;99.90;;;;;;5012451;28;20128;-78
2020/12/15 08:34:12;;;;;;;16.95;9.13;;;2.80;99.90;;;;;;5011160;28;20025;-77
2020/12/15 08:36:49;;;;;;;14.68;8.10;;;2.90;99.90;;;;;;5007485;28;20041;-77
2020/12/15 08:39:18;;;;;;;15.02;8.63;;;2.90;99.90;;;;;;5010005;28;20049;-78
2020/12/15 08:41:51;;;;;;;15.50;9.15;;;3.00;99.90;;;;;;5009528;28;20149;-77
2020/12/15 08:44:17;;;;;;;13.80;8.70;;;3.00;99.90;;;;;;5006926;28;20052;-78
2020/12/15 08:46:44;;;;;;;14.77;9.07;;;3.10;99.90;;;;;;5014120;28;20030;-79
2020/12/15 08:49:14;;;;;;;14.93;8.90;;;3.10;99.90;;;;;;5013217;28;20026;-77
2020/12/15 08:51:47;;;;;;;14.90;8.77;;;3.20;99.90;;;;;;5011146;28;20056;-79
2020/12/15 08:54:13;;;;;;;19.02;9.27;;;3.20;99.90;;;;;;5010683;28;20026;-78
2020/12/15 08:56:39;;;;;;;15.32;9.23;;;3.30;99.90;;;;;;5011290;28;20037;-77
2020/12/15 08:59:13;;;;;;;12.90;8.85;;;3.30;99.90;;;;;;5009235;28;20026;-76
2020/12/15 09:01:40;;;;;;;16.77;8.80;;;3.40;99.90;;;;;;5010616;28;20042;-77
2020/12/15 09:04:26;;;;;;;17.40;9.25;;;3.40;99.90;;;;;;5012363;28;20154;-81
2020/12/15 09:06:52;;;;;;;17.15;9.02;;;3.50;99.90;;;;;;4984530;28;20481;-77
2020/12/15 09:09:26;;;;;;;15.85;8.98;;;3.50;99.90;;;;;;5009232;28;20030;-78
2020/12/15 09:11:55;;;;;;;16.52;9.25;;;3.60;99.90;;;;;;5010630;28;20061;-78
2020/12/15 09:14:21;;;;;;;17.48;9.05;;;3.60;99.90;;;;;;5015958;28;20061;-77
2020/12/15 09:16:48;;;;;;;12.68;8.15;;;3.70;99.90;;;;;;5012275;28;20409;-77
2020/12/15 09:19:16;;;;;;;14.48;9.13;;;3.70;99.90;;;;;;5011896;28;20121;-77
2020/12/15 09:21:42;;;;;;;16.73;9.25;;;3.80;99.90;;;;;;5009551;28;20034;-78
2020/12/15 09:24:09;;;;;;;15.45;8.77;;;3.80;99.90;;;;;;5009445;28;20092;-78
2020/12/15 09:26:40;;;;;;;14.55;9.15;;;3.80;99.90;;;;;;5009835;28;20025;-78
2020/12/15 09:29:10;;;;;;;17.38;8.75;;;3.90;99.90;;;;;;5010025;28;20059;-78
2020/12/15 09:31:36;;;;;;;;;;;3.90;99.90;;;;;;5007561;28;20116;-76
2020/12/15 09:34:02;;;;;;;14.70;8.30;;;4.00;99.90;;;;;;5009216;28;19953;-79
2020/12/15 09:36:28;;;;;;;13.77;9.50;;;4.00;99.90;;;;;;5009925;28;20049;-78
2020/12/15 09:38:54;;;;;;;16.85;9.55;;;4.00;99.90;;;;;;4987077;28;20125;-78
2020/12/15 09:41:20;;;;;;;14.38;9.82;;;3.90;99.90;;;;;;4991184;28;20026;-77
2020/12/15 09:43:46;;;;;;;14.65;9.23;;;4.00;99.90;;;;;;4988041;28;20029;-77
2020/12/15 09:46:12;;;;;;;14.77;9.40;;;4.00;99.90;;;;;;4991938;28;20477;-77
2020/12/15 09:48:37;;;;;;;14.95;9.45;;;4.10;99.90;;;;;;4997952;28;20045;-77
2020/12/15 09:51:03;;;;;;;17.15;9.68;;;4.20;99.90;;;;;;4993406;28;20076;-77
2020/12/15 09:53:30;;;;;;;16.52;9.25;;;4.20;99.90;;;;;;4988838;28;20042;-78
2020/12/15 09:55:56;;;;;;;14.68;9.13;;;4.20;99.90;;;;;;4994165;28;20026;-77
2020/12/15 09:58:22;;;;;;;16.98;9.30;;;4.20;99.90;;;;;;5008659;28;20038;-77
2020/12/15 10:00:47;;;;;;;18.77;9.52;;;4.30;99.90;;;;;;4994365;28;20042;-78
2020/12/15 10:03:13;;;;;;;15.40;9.15;;;4.50;99.90;;;;;;4993710;28;20053;-79
2020/12/15 10:05:43;;;;;;;16.10;9.18;;;4.60;99.90;;;;;;4990664;28;20066;-79
2020/12/15 10:08:11;;;;;;;14.27;9.32;;;4.70;99.90;;;;;;4981070;28;20087;-78
2020/12/15 10:10:37;;;;;;;16.15;9.18;;;4.70;99.90;;;;;;4989012;28;20062;-78
2020/12/15 10:13:03;;;;;;;12.90;9.20;;;4.80;99.90;;;;;;4980816;28;20046;-78
2020/12/15 10:15:28;;;;;;;20.10;9.15;;;4.80;99.90;;;;;;4995274;28;20026;-79
2020/12/15 10:17:54;;;;;;;14.38;8.73;;;4.80;99.90;;;;;;4997157;28;20050;-78
2020/12/15 10:20:19;;;;;;;14.93;8.45;;;4.80;99.90;;;;;;4991270;28;20102;-78
2020/12/15 10:22:45;;;;;;;14.20;9.02;;;5.00;99.90;;;;;;4994471;28;20105;-78
2020/12/15 10:25:11;;;;;;;13.07;8.48;;;5.10;99.90;;;;;;4999414;28;20431;-78
2020/12/15 10:27:36;;;;;;;14.95;8.20;;;5.20;99.90;;;;;;4992852;28;20660;-80
2020/12/15 10:30:03;;;;;;;14.43;9.70;;;5.40;99.90;;;;;;5003819;28;20366;-78
2020/12/15 10:32:29;;;;;;;16.40;9.93;;;5.40;99.90;;;;;;4996298;28;20481;-79
2020/12/15 10:34:54;;;;;;;14.15;8.85;;;5.40;99.90;;;;;;4989948;28;20029;-78
2020/12/15 10:37:23;;;;;;;17.08;9.27;;;5.60;99.90;;;;;;4998987;28;20049;-77
2020/12/15 10:39:52;;;;;;;17.83;9.95;;;5.70;99.90;;;;;;5007725;28;20061;-78
2020/12/15 10:42:17;;;;;;;13.35;9.38;;;5.80;99.90;;;;;;5007151;28;20511;-77
2020/12/15 10:44:44;;;;;;;14.93;9.05;;;5.80;99.90;;;;;;5008078;28;20054;-78
2020/12/15 10:47:10;;;;;;;14.45;9.02;;;5.80;99.90;;;;;;5009113;28;20026;-78
2020/12/15 10:49:35;;;;;;;14.77;8.70;;;5.80;99.90;;;;;;5010248;28;20433;-77
2020/12/15 10:52:02;;;;;;;11.95;8.13;;;5.70;99.90;;;;;;5014209;28;20057;-77
2020/12/15 10:54:28;;;;;;;16.27;9.73;;;5.70;99.90;;;;;;5011248;28;20801;-77
2020/12/15 10:56:54;;;;;;;15.20;8.85;;;5.70;99.90;;;;;;5008564;28;20042;-79
2020/12/15 10:59:19;;;;;;;14.27;9.68;;;5.70;99.90;;;;;;5013558;28;20022;-79
2020/12/15 11:01:50;;;;;;;13.13;8.18;;;5.70;99.90;;;;;;5005514;28;20082;-78
2020/12/15 11:04:17;;;;;;;13.20;8.43;;;5.60;99.90;;;;;;5008648;28;20030;-79
2020/12/15 11:06:42;;;;;;;16.85;9.27;;;5.60;99.90;;;;;;4989317;28;20496;-78
2020/12/15 11:09:10;;;;;;;16.27;9.07;;;5.60;99.90;;;;;;5010147;28;20022;-78
2020/12/15 11:11:36;;;;;;;15.15;8.50;;;5.70;99.90;;;;;;5009981;28;20038;-84
2020/12/15 11:14:03;;;;;;;15.65;8.40;;;5.70;99.90;;;;;;4993743;28;20536;-84
2020/12/15 11:16:34;;;;;;;15.10;8.93;;;5.70;99.90;;;;;;4997467;28;20358;-86
2020/12/15 11:19:04;;;;;;;13.07;8.68;;;5.70;99.90;;;;;;4993752;28;20110;-87
2020/12/15 11:21:30;;;;;;;15.38;8.88;;;5.70;99.90;;;;;;4994013;28;20026;-79
2020/12/15 11:23:55;;;;;;;13.68;8.85;;;5.60;99.90;;;;;;5010981;28;20048;-79
2020/12/15 11:26:21;;;;;;;16.63;9.18;;;5.60;99.90;;;;;;5010403;28;20025;-77
2020/12/15 11:28:46;;;;;;;14.70;9.25;;;5.60;99.90;;;;;;5013539;28;20068;-78
2020/12/15 11:31:12;;;;;;;19.35;9.50;;;5.80;99.90;;;;;;4994265;28;20041;-80
2020/12/15 11:33:39;;;;;;;14.90;9.13;;;5.90;99.90;;;;;;5011116;28;20104;-78
2020/12/15 11:36:06;;;;;;;15.45;9.48;;;6.00;99.90;;;;;;5013197;28;20118;-79
2020/12/15 11:38:31;;;;;;;19.10;10.18;;;6.00;99.90;;;;;;5012403;28;20101;-78
2020/12/15 11:41:00;;;;;;;19.85;10.68;;;6.10;99.90;;;;;;5011681;28;20041;-78
2020/12/15 11:43:25;;;;;;;17.65;9.98;;;6.10;99.90;;;;;;5008204;28;20084;-80
2020/12/15 11:45:51;;;;;;;17.60;10.30;;;6.10;99.90;;;;;;5012123;28;20034;-78
2020/12/15 11:48:16;;;;;;;18.92;10.23;;;6.10;99.90;;;;;;5012510;28;20033;-79
2020/12/15 11:50:42;;;;;;;18.08;10.00;;;6.30;99.90;;;;;;5012404;28;20040;-80
2020/12/15 11:53:08;;;;;;;17.60;9.70;;;6.30;99.90;;;;;;5010188;28;20030;-78
2020/12/15 11:55:33;;;;;;;20.85;9.73;;;6.50;99.90;;;;;;5011034;28;20197;-80
2020/12/15 11:57:59;;;;;;;15.80;9.88;;;6.60;99.90;;;;;;5008765;28;20033;-79
2020/12/15 12:00:24;;;;;;;16.08;10.15;;;6.80;99.90;;;;;;5011118;28;20044;-80
2020/12/15 12:02:51;;;;;;;16.95;10.73;;;6.90;99.90;;;;;;5011603;28;20033;-80
2020/12/15 12:05:20;;;;;;;17.45;10.07;;;7.00;99.90;;;;;;4995928;28;20046;-78
2020/12/15 12:07:47;;;;;;;20.33;11.27;;;6.90;99.90;;;;;;5010970;28;20726;-78
2020/12/15 12:10:18;;;;;;;21.35;12.38;;;6.90;99.90;;;;;;5004541;28;20050;-83
2020/12/15 12:12:44;;;;;;;22.77;12.32;;;6.80;99.90;;;;;;5015086;28;20381;-80
2020/12/15 12:15:10;;;;;;;20.63;13.25;;;6.80;99.90;;;;;;5010563;28;20030;-82
2020/12/15 12:17:36;;;;;;;18.75;10.50;;;6.90;99.90;;;;;;4994846;28;20018;-80
2020/12/15 12:20:03;;;;;;;18.40;10.27;;;6.90;99.90;;;;;;5013195;28;20053;-79
2020/12/15 12:22:28;;;;;;;16.60;11.88;;;6.70;99.90;;;;;;5014363;28;20022;-80
2020/12/15 12:24:54;;;;;;;16.48;10.85;;;6.60;99.90;;;;;;5020214;28;20046;-80
2020/12/15 12:27:20;;;;;;;18.65;10.95;;;6.50;99.90;;;;;;5013830;28;20469;-80
2020/12/15 12:29:46;;;;;;;16.65;10.27;;;6.40;99.90;;;;;;5016484;28;20022;-81
2020/12/15 12:32:11;;;;;;;16.65;9.90;;;6.40;99.90;;;;;;5024589;28;20022;-80
2020/12/15 12:34:37;;;;;;;18.33;10.68;;;6.50;99.90;;;;;;5017202;28;20034;-80
2020/12/15 12:37:08;;;;;;;19.60;11.15;;;6.50;99.90;;;;;;5013163;28;20049;-82
2020/12/15 12:39:35;;;;;;;18.42;10.63;;;6.50;99.90;;;;;;5013735;28;20022;-81
2020/12/15 12:42:01;;;;;;;16.85;10.25;;;6.50;99.90;;;;;;5013425;28;20061;-80
2020/12/15 12:44:27;;;;;;;15.95;10.15;;;6.50;99.90;;;;;;4994049;28;20209;-80